Main page
METAR-TAF:

METAR-TAF

Airports :

Monmouth Executive Airport

Belmar / Farmingdale, New Jersey, United States

latitude: 40-11N, longitude: 074-08W, elevation: 157 ft

Current weather observation

The report was made 56 minutes ago, at 12:56 UTC
Wind 10 mph from the West/Southwest with gusts up to 21 mph
Temperature 79°F
Humidity 65%
Pressure 29.87 in. Hg
Visibility: 10 miles
Clear sky

METAR: KBLM 201256Z AUTO 24009G18KT 10SM CLR 26/19 A2987 RMK AO2 SLP113 T02560189

Time: 09:52 (13:52 UTC)


TAF: missing

Weather observations and forecasts of more than 4000 airports (METAR and TAF reports).

The available stations are represented by yellow and red dots on the map.

Hover mouse over dot to see the name of the station.

Then click to see weather observations and forecasts.

To change the map : click on the green buttons with a black cross to zoom in, on the green button with a dash to zoom out, or on the green arrows for adjacent maps.


METAR-TAF: